Lafayette, AL (36862)

2:12 PM CDT on August 24, 2016 (GMT -0500)
APRSWXNET | | Change Station

Elev 918 ft 33.02 °N, 85.35 °W | Updated 24 minutes ago

Mostly Cloudy
Mostly Cloudy
85 °F
Feels Like 92 °F
N
0
Wind Variable Wind from WSW
Gusts 1.0 mph

Today
High -- | Low -- °F
--% Chance of Precip.
Yesterday
High -- | Low -- °F
Precip. -- in
Pressure 30.25 in
Visibility 10.0 miles
Clouds Scattered Clouds 3200 ft
Mostly Cloudy 8000 ft
Heat Index 92 °F
Dew Point 73 °F
Humidity 68%
Rainfall in
Snow Depth Not available.
6:11 AM 7:15 PM
Waning Gibbous, 54% visible
METAR KAUO 241756Z AUTO VRB04KT 10SM SCT032 BKN080 31/23 A3023 RMK AO2 SLP244 T03060233 10306 20239 58014
Pressure 30.25 in
Visibility 10.0 miles
Clouds Scattered Clouds 3200 ft
Mostly Cloudy 8000 ft
Heat Index 92 °F
Dew Point 73 °F
Humidity 68%
Rainfall in
Snow Depth Not available.
6:11 AM 7:15 PM
Waning Gibbous, 54% visible
METAR KAUO 241756Z AUTO VRB04KT 10SM SCT032 BKN080 31/23 A3023 RMK AO2 SLP244 T03060233 10306 20239 58014

10-Day Weather Forecast

Almanac

Astronomy

Aug. 24, 2016 Rise Set
Actual Time
Civil Twilight
Nautical Twilight
Astronomical Twilight
Moon
Length of Visible Light
Length of Day
Tomorrow will be .
, % of the Moon is Illuminated

Today's Extremes

State Highs State Lows

Community

WunderPhotos

Upload Photos

1,934,688 photos uploaded!

WunderBlog® & News

Nearby

Air Quality

  Air Quality AQ Index Pollutant
Not available.

Snow Depth

Station Depth Elevation

Earthquake Activity

City Distance Mag. Time & Date
Minimum magnitude displayed is 2.5.

Coastal Water Temperatures

Place Temperature

Stations

Nearby Weather Stations

Station Location Temp. Windchill Dew Point Humidity Wind Precip. Elev Updated Type
                   

Watches & Warnings

There are currently no watches in effect.